Niles, Illinois
Current Conditions -  °F | °C
As of 8:51 AM on Friday 24 Oct 2014 (Local Time) from KORD Reporting Station
Broken Clouds Broken Clouds  
Wind Chill: 12°   Ceiling: 2800
Heat Index: 12°   Visibility: 10mi
Dew Point:   Wind: 6mph
Humidity: 77%   Direction: 300°WNW
Pressure: 30.06"   Gusts: NA
Location:  42.02°N, 87.8°W
Report Text: KORD 241351Z 30005KT 10SM BKN028 12/08 A3006 RMK AO2 SLP181 T01170078
Loading
Personal Weather Stations






























Interactive Weather Map
Tropical Storm Tracking
New forecast layout! Learn more

10-Day Weather Forecast

Advertisements
Track Severe Weather on mobile